Latest Weather Observations for Karratha

IDW60801

Issued at 11:32 am WST Tuesday 9 February 2016 (issued every 30 minutes, with the page automatically refreshed every 10 minutes)

About weather observations | Map of weather stations | Latest weather observations for WA | Other Formats
Station Details ID: 004083 Name: KARRATHA AERO Lat: -20.71 Lon: 116.77 Height: 5.3 m
Data from the previous 72 hours. | See also: Recent months at Karratha
Date/Time
WST
Temp
°C
App
Temp
°C
Dew
Point
Rel
Hum
%
Delta-T
°C
Wind Press
QNH
hPa
Press
MSL
hPa
Rain
since 9 am
mm
Dir
 
Spd
km/h
Gust
km/h
Spd
kts
Gust
kts
09/11:30am 42.6 38.3 9.5 14 19.6 NE 22 32 12 17 1008.0 1007.9 0.0
09/11:00am 42.0 38.4 10.0 15 19.1 NE 19 24 10 13 1008.3 1008.2 0.0
09/10:30am 42.7 38.3 7.3 12 20.3 ESE 20 32 11 17 1008.5 1008.4 0.0
09/10:00am 42.2 37.7 6.9 12 20.2 SSE 20 32 11 17 1008.7 1008.6 0.0
09/09:30am 40.9 36.4 7.1 13 19.2 S 20 26 11 14 1009.0 1008.9 0.0
09/09:00am 39.5 36.0 10.8 18 17.1 S 20 26 11 14 1009.1 1009.0 0.0
09/08:30am 37.7 34.0 11.6 21 15.6 SSE 22 26 12 14 1009.1 1009.0 0.0
09/08:00am 35.5 34.0 14.2 28 13.2 S 15 20 8 11 1009.1 1009.0 0.0
09/07:30am 32.6 32.5 16.0 36 10.4 S 11 15 6 8 1009.1 1009.0 0.0
09/07:00am 30.1 30.7 16.9 45 8.3 S 9 11 5 6 1009.1 1009.0 0.0
09/06:30am 28.1 28.9 17.3 52 6.8 S 9 13 5 7 1008.9 1008.8 0.0
09/06:00am 27.1 30.1 18.4 59 5.6 CALM 0 2 0 1 1008.7 1008.6 0.0
09/05:30am 28.4 31.2 17.9 53 6.7 CALM 0 0 0 0 1008.2 1008.1 0.0
09/05:00am 28.1 30.6 18.2 55 6.3 SW 2 6 1 3 1008.1 1008.0 0.0
09/04:30am 26.5 31.0 21.5 74 3.3 CALM 0 0 0 0 1008.0 1007.9 0.0
09/04:00am 26.9 31.4 21.6 72 3.5 CALM 0 0 0 0 1007.9 1007.8 0.0
09/03:30am 27.9 32.8 22.4 72 3.7 CALM 0 0 0 0 1007.8 1007.7 0.0
09/03:00am 28.4 32.5 23.3 74 3.5 WSW 7 9 4 5 1007.7 1007.6 0.0
09/02:30am 28.4 31.5 23.5 75 3.4 W 13 17 7 9 1007.8 1007.7 0.0
09/02:00am 28.3 31.6 23.2 74 3.5 SSW 11 15 6 8 1008.4 1008.3 0.0
09/01:30am 29.8 32.8 23.3 68 4.5 WSW 13 17 7 9 1008.4 1008.3 0.0
09/01:00am 30.2 32.6 23.6 67 4.6 WSW 17 20 9 11 1008.3 1008.2 0.0
09/12:30am 30.5 32.9 24.2 69 4.4 WSW 19 20 10 11 1008.5 1008.4 0.0
09/12:00am 30.5 33.1 23.9 68 4.6 WSW 17 22 9 12 1008.8 1008.7 0.0
 
Date/Time
WST
Temp
°C
App
Temp
°C
Dew
Point
Rel
Hum
%
Delta-T
°C
Wind Press
QNH
hPa
Press
MSL
hPa
Rain
since 9 am
mm
Dir
 
Spd
km/h
Gust
km/h
Spd
kts
Gust
kts
08/11:30pm 30.8 32.6 23.2 64 5.2 WSW 19 22 10 12 1009.2 1009.2 0.0
08/11:00pm 31.2 33.2 23.0 61 5.6 WSW 17 22 9 12 1009.5 1009.5 0.0
08/10:30pm 31.8 33.6 22.5 58 6.4 WSW 17 20 9 11 1009.7 1009.7 0.0
08/10:00pm 32.1 32.7 21.0 52 7.5 WSW 19 24 10 13 1009.6 1009.6 0.0
08/09:30pm 31.6 34.3 24.7 67 4.8 WSW 19 24 10 13 1009.5 1009.5 0.0
08/09:00pm 31.4 35.8 27.3 79 3.0 WSW 19 22 10 12 1009.1 1009.0 0.0
08/08:30pm 31.3 34.4 26.3 75 3.6 W 22 26 12 14 1008.7 1008.6 0.0
08/08:00pm 31.5 33.7 24.9 68 4.7 W 22 26 12 14 1008.3 1008.2 0.0
08/07:30pm 31.6 33.6 24.0 64 5.3 W 20 26 11 14 1008.0 1007.9 0.0
08/07:00pm 31.8 32.8 24.1 63 5.4 W 26 30 14 16 1007.6 1007.5 0.0
08/06:30pm 32.1 32.5 24.4 63 5.4 W 30 33 16 18 1007.1 1007.0 0.0
08/06:00pm 34.0 35.3 24.0 56 7.0 W 24 30 13 16 1006.8 1006.7 0.0
08/05:30pm 34.2 35.2 22.9 51 7.8 WNW 22 28 12 15 1006.6 1006.5 0.0
08/05:00pm 35.9 36.9 22.8 46 9.1 WNW 22 28 12 15 1006.3 1006.2 0.0
08/04:30pm 37.0 36.5 19.9 36 11.4 NW 22 28 12 15 1006.2 1006.1 0.0
08/04:00pm 37.3 38.1 21.8 40 10.7 NW 20 28 11 15 1006.2 1006.1 0.0
08/03:30pm 37.8 39.1 22.7 42 10.5 NW 20 26 11 14 1006.4 1006.3 0.0
08/03:00pm 37.6 39.6 24.0 45 9.6 NW 20 28 11 15 1006.6 1006.5 0.0
08/02:30pm 37.6 39.9 25.0 48 9.0 NW 22 28 12 15 1007.0 1006.9 0.0
08/02:00pm 38.1 40.0 23.7 43 10.1 NW 20 26 11 14 1007.2 1007.1 0.0
08/01:30pm 39.1 41.5 24.6 43 10.3 NW 20 26 11 14 1007.5 1007.4 0.0
08/01:00pm 39.0 41.4 23.7 41 10.8 NNW 17 24 9 13 1007.7 1007.6 0.0
08/12:30pm 39.5 37.9 13.8 22 16.0 NNW 15 20 8 11 1008.0 1007.9 0.0
08/12:00pm 38.1 39.8 20.9 37 11.7 NNW 13 17 7 9 1008.4 1008.3 0.0
08/11:30am 36.2 39.4 23.1 47 9.1 NNW 11 17 6 9 1008.8 1008.7 0.0
08/11:00am 36.8 40.2 23.3 46 9.4 NNW 11 15 6 8 1009.0 1008.9 0.0
08/10:30am 36.2 37.6 19.6 37 11.0 NW 11 15 6 8 1009.2 1009.2 0.0
08/10:00am 34.7 36.1 21.0 44 9.3 NW 15 17 8 9 1009.3 1009.3 0.0
08/09:30am 33.9 36.7 23.6 55 7.2 WNW 15 19 8 10 1009.3 1009.3 0.0
08/09:00am 33.5 36.1 22.6 53 7.5 W 13 20 7 11 1009.4 1009.4 0.0
08/08:30am 32.6 36.3 23.3 58 6.4 WNW 9 15 5 8 1009.4 1009.4 0.0
08/08:00am 32.3 34.6 22.1 55 7.0 WNW 13 15 7 8 1009.1 1009.0 0.0
08/07:30am 30.8 34.4 24.4 68 4.5 WNW 13 15 7 8 1009.1 1009.0 0.0
08/07:00am 29.5 34.3 24.4 74 3.6 NNW 7 11 4 6 1009.3 1009.3 0.0
08/06:30am 27.7 32.5 22.9 75 3.3 N 2 9 1 5 1009.3 1009.3 0.0
08/06:00am 28.1 32.2 23.9 78 2.9 WNW 9 11 5 6 1008.6 1008.5 0.0
08/05:30am 27.5 31.6 23.9 81 2.5 W 9 11 5 6 1008.4 1008.3 0.0
08/05:00am 27.4 32.0 23.8 81 2.5 W 6 9 3 5 1008.3 1008.2 0.0
08/04:30am 27.3 31.0 23.3 79 2.7 WSW 9 13 5 7 1008.2 1008.1 0.0
08/04:00am 28.1 31.2 24.1 79 2.8 WSW 15 17 8 9 1008.0 1007.9 0.0
08/03:30am 27.9 30.4 23.1 75 3.3 WSW 15 19 8 10 1007.8 1007.7 0.0
08/03:00am 28.2 30.1 23.8 77 3.0 WSW 20 24 11 13 1007.9 1007.8 0.0
08/02:30am 28.2 30.6 24.6 81 2.5 WSW 20 24 11 13 1008.2 1008.1 0.0
08/02:00am 28.4 30.3 25.0 82 2.4 WSW 24 28 13 15 1008.6 1008.5 0.0
08/01:30am 28.6 30.7 25.4 83 2.3 WSW 24 32 13 17 1008.9 1008.8 0.0
08/01:00am 29.0 31.5 25.4 81 2.5 WSW 22 28 12 15 1009.2 1009.2 0.0
08/12:30am 29.4 31.8 25.2 78 3.0 WSW 22 28 12 15 1009.5 1009.5 0.0
08/12:00am 29.7 32.0 25.0 76 3.3 WSW 22 26 12 14 1009.9 1009.9 0.0
 
Date/Time
WST
Temp
°C
App
Temp
°C
Dew
Point
Rel
Hum
%
Delta-T
°C
Wind Press
QNH
hPa
Press
MSL
hPa
Rain
since 9 am
mm
Dir
 
Spd
km/h
Gust
km/h
Spd
kts
Gust
kts
07/11:30pm 29.9 32.4 24.8 74 3.6 W 20 26 11 14 1010.3 1010.3 0.0
07/11:00pm 30.0 33.1 25.7 78 3.0 WSW 20 24 11 13 1010.7 1010.7 0.0
07/10:30pm 30.0 34.3 27.2 85 2.0 W 19 24 10 13 1010.5 1010.5 0.0
07/10:00pm 30.2 34.2 27.0 83 2.3 W 20 24 11 13 1010.3 1010.3 0.0
07/09:30pm 30.2 33.4 26.4 80 2.7 W 22 28 12 15 1009.7 1009.7 0.0
07/09:00pm 30.5 32.5 25.8 76 3.3 W 26 30 14 16 1009.3 1009.3 0.0
07/08:30pm 30.8 31.5 23.7 66 4.9 W 26 32 14 17 1009.0 1008.9 0.0
07/08:00pm 31.0 31.8 24.4 68 4.6 W 28 32 15 17 1008.6 1008.5 0.0
07/07:30pm 31.0 31.6 24.1 66 4.8 W 28 32 15 17 1008.1 1008.0 0.0
07/07:00pm 31.7 32.1 23.8 63 5.5 W 28 32 15 17 1007.7 1007.6 0.0
07/06:30pm 32.8 32.6 22.0 53 7.4 W 26 30 14 16 1007.2 1007.1 0.0
07/06:00pm 34.0 32.3 18.9 41 9.9 W 26 32 14 17 1006.8 1006.7 0.0
07/05:30pm 35.0 33.3 18.1 36 11.0 W 24 30 13 16 1006.7 1006.6 0.0
07/05:00pm 34.8 34.0 19.2 39 10.3 WNW 22 28 12 15 1006.5 1006.4 0.0
07/04:30pm 35.8 35.2 19.7 39 10.7 WNW 22 28 12 15 1006.3 1006.2 0.0
07/04:00pm 35.8 34.0 18.8 36 11.2 WNW 26 33 14 18 1006.5 1006.4 0.0
07/03:30pm 36.0 36.1 21.8 43 9.7 WNW 24 32 13 17 1006.5 1006.4 0.0
07/03:00pm 36.5 36.4 20.7 39 10.7 NW 22 28 12 15 1006.7 1006.6 0.0
07/02:30pm 36.3 34.7 18.4 35 11.7 NNW 24 30 13 16 1006.9 1006.8 0.0
07/02:00pm 35.7 36.2 22.6 46 9.1 NW 24 32 13 17 1007.1 1007.0 0.0
07/01:30pm 34.8 34.9 23.2 51 8.1 NNW 28 35 15 19 1007.5 1007.4 0.0
07/01:00pm 35.3 36.8 24.3 53 7.8 NNW 24 35 13 19 1007.8 1007.7 0.0
07/12:30pm 36.7 38.3 23.9 47 9.0 NNW 22 30 12 16 1007.8 1007.7 0.0
07/12:00pm 36.7 36.9 22.1 43 10.1 NNW 24 32 13 17 1008.0 1007.9 0.0
07/11:30am 38.7 39.3 19.5 32 12.8 NNW 15 19 8 10 1008.2 1008.1 0.0
07/11:00am 38.0 37.8 15.7 26 14.2 NNW 11 17 6 9 1008.5 1008.4 0.0
07/10:30am 36.5 37.6 17.1 31 12.5 NNW 7 11 4 6 1008.7 1008.6 0.0
07/10:00am 34.9 36.8 19.7 41 10.1 NNW 9 13 5 7 1009.0 1008.9 0.0
07/09:30am 33.5 36.7 22.3 52 7.7 NW 9 13 5 7 1009.2 1009.2 0.0
07/09:00am 35.5 37.2 17.2 33 11.8 SSE 4 9 2 5 1009.1 1009.0 0.0
07/08:30am 32.7 35.4 20.6 49 8.1 S 7 11 4 6 1009.0 1008.9 0.0
07/08:00am 31.4 35.3 21.8 56 6.5 SSW 4 9 2 5 1008.7 1008.6 0.0
07/07:30am 29.8 34.5 24.0 71 4.0 WSW 6 9 3 5 1008.4 1008.3 0.0
07/07:00am 28.4 33.8 25.4 84 2.1 WSW 7 9 4 5 1008.3 1008.2 0.0
07/06:30am 27.1 32.3 25.1 89 1.4 WSW 7 9 4 5 1008.0 1007.9 0.0
07/06:00am 26.4 31.4 24.8 91 1.1 SW 7 9 4 5 1007.7 1007.6 0.0
07/05:30am 26.6 31.7 25.0 91 1.1 SW 7 9 4 5 1007.3 1007.2 0.0
07/05:00am 26.7 31.4 24.9 90 1.3 SW 9 11 5 6 1007.3 1007.2 0.0
07/04:30am 26.9 31.8 24.7 88 1.5 SW 7 9 4 5 1007.2 1007.1 0.0
07/04:00am 27.5 32.3 25.1 87 1.7 WSW 9 11 5 6 1007.1 1007.0 0.0
07/03:30am 27.6 32.2 25.4 88 1.5 SW 11 15 6 8 1007.2 1007.1 0.0
07/03:00am 27.8 32.0 25.4 87 1.7 SW 13 17 7 9 1007.2 1007.1 0.0
07/02:30am 27.9 31.7 25.9 89 1.4 WSW 17 20 9 11 1007.2 1007.1 0.0
07/02:00am 27.9 31.5 26.1 90 1.3 WSW 19 24 10 13 1007.3 1007.2 0.0
07/01:30am 28.1 31.2 26.3 90 1.3 WSW 22 26 12 14 1007.5 1007.4 0.0
07/01:00am 28.2 31.5 26.0 88 1.6 WSW 20 24 11 13 1007.7 1007.6 0.0
07/12:30am 28.5 31.6 25.7 85 2.0 WSW 20 26 11 14 1008.1 1008.0 0.0
07/12:00am 28.7 31.6 25.1 81 2.5 W 19 24 10 13 1008.1 1008.0 0.0
 
Date/Time
WST
Temp
°C
App
Temp
°C
Dew
Point
Rel
Hum
%
Delta-T
°C
Wind Press
QNH
hPa
Press
MSL
hPa
Rain
since 9 am
mm
Dir
 
Spd
km/h
Gust
km/h
Spd
kts
Gust
kts
06/11:30pm 28.8 31.8 25.2 81 2.5 W 19 22 10 12 1008.3 1008.2 0.0
06/11:00pm 28.8 31.8 25.2 81 2.5 W 19 24 10 13 1008.5 1008.4 0.0
06/10:30pm 28.8 32.0 25.8 84 2.1 W 20 24 11 13 1008.5 1008.4 0.0
06/10:00pm 28.8 32.2 26.2 86 1.9 W 20 26 11 14 1008.2 1008.1 0.0
06/09:30pm 28.8 32.2 26.2 86 1.8 W 20 24 11 13 1007.9 1007.8 0.0
06/09:00pm 29.0 32.0 25.6 82 2.4 WNW 20 26 11 14 1007.6 1007.5 0.0
06/08:30pm 28.9 31.7 25.3 81 2.5 WNW 20 24 11 13 1007.4 1007.3 0.0
06/08:00pm 29.4 32.1 24.7 76 3.3 WNW 19 26 10 14 1007.3 1007.2 0.0
06/07:30pm 29.6 31.9 24.5 74 3.6 WNW 20 26 11 14 1007.0 1006.9 0.0
06/07:00pm 29.7 32.9 25.9 80 2.7 WNW 20 24 11 13 1006.6 1006.5 0.0
06/06:30pm 30.1 32.5 25.8 78 3.1 NW 24 30 13 16 1006.2 1006.1 0.0
06/06:00pm 31.2 32.9 25.3 71 4.2 WNW 26 32 14 17 1005.8 1005.7 0.0
06/05:30pm 32.0 32.4 23.8 62 5.7 WNW 28 35 15 19 1005.7 1005.6 0.0
06/05:00pm 33.3 34.5 23.9 58 6.6 WNW 24 30 13 16 1005.5 1005.4 0.0
06/04:30pm 33.6 35.2 24.5 59 6.4 WNW 24 32 13 17 1005.4 1005.3 0.0
06/04:00pm 34.5 36.6 24.7 56 6.9 NW 22 28 12 15 1005.4 1005.3 0.0
06/03:30pm 35.0 37.0 24.6 55 7.3 NW 22 28 12 15 1005.5 1005.4 0.0
06/03:00pm 35.1 37.6 25.3 57 7.0 NW 22 28 12 15 1005.7 1005.6 0.0
06/02:30pm 34.0 35.8 24.8 58 6.5 NW 24 32 13 17 1005.8 1005.7 0.0
06/02:00pm 34.6 36.8 24.8 56 6.9 NW 22 28 12 15 1006.2 1006.1 0.0
06/01:30pm 34.0 36.7 25.1 59 6.3 NW 20 26 11 14 1006.6 1006.5 0.0
06/01:00pm 34.4 38.1 26.3 62 5.8 WNW 19 26 10 14 1007.0 1006.9 0.0
06/12:30pm 33.6 36.4 25.8 63 5.6 WNW 22 28 12 15 1007.3 1007.2 0.0
06/12:00pm 32.9 35.4 25.4 64 5.3 WNW 22 28 12 15 1007.6 1007.5 0.0

Other Formats:

Comma delimited format used in spreadsheet applications
http://www.bom.gov.au/fwo/IDW60801/IDW60801.95307.axf

JavaScript Object Notation format (JSON) in row-major order
http://www.bom.gov.au/fwo/IDW60801/IDW60801.95307.json